createdAt,value
2023-03-18T00:00:36.557Z,22.15
2023-03-18T00:03:19.921Z,22.67
2023-03-18T00:06:17.556Z,21.90
2023-03-18T00:09:06.557Z,21.15
2023-03-18T00:11:55.634Z,23.50
2023-03-18T00:14:45.635Z,22.35
2023-03-18T00:17:28.040Z,21.80
2023-03-18T00:20:16.654Z,21.88
2023-03-18T00:23:04.887Z,23.17
2023-03-18T00:25:47.604Z,22.17
2023-03-18T00:28:37.363Z,23.08
2023-03-18T00:31:21.631Z,22.95
2023-03-18T00:34:03.970Z,23.67
2023-03-18T00:36:53.561Z,24.63
2023-03-18T00:39:45.340Z,22.38
2023-03-18T00:42:28.550Z,22.30
2023-03-18T00:45:19.464Z,23.92
2023-03-18T00:48:15.650Z,23.50
2023-03-18T00:51:04.992Z,23.58
2023-03-18T00:53:47.560Z,23.08
2023-03-18T00:56:33.158Z,24.30
2023-03-18T00:59:23.574Z,23.35
2023-03-18T01:02:06.438Z,23.25
2023-03-18T01:04:55.547Z,24.20
2023-03-18T01:07:37.860Z,24.20
2023-03-18T01:10:27.529Z,22.70
2023-03-18T01:13:16.926Z,22.15
2023-03-18T01:16:01.727Z,19.90
2023-03-18T01:18:52.706Z,19.00
2023-03-18T01:21:36.649Z,18.48
2023-03-18T01:24:27.748Z,18.65
2023-03-18T01:27:10.583Z,17.90
2023-03-18T01:29:55.855Z,16.92
2023-03-18T01:32:45.608Z,17.58
2023-03-18T01:35:28.163Z,18.33
2023-03-18T01:38:18.566Z,18.45
2023-03-18T01:41:01.917Z,17.95
2023-03-18T01:46:56.378Z,16.80
2023-03-18T01:50:07.623Z,18.02
2023-03-18T01:52:55.958Z,17.02
2023-03-18T01:55:47.579Z,19.08
2023-03-18T01:58:45.695Z,19.42
2023-03-18T02:01:40.305Z,21.23
2023-03-18T02:04:34.571Z,23.60
2023-03-18T02:07:35.412Z,25.92
2023-03-18T02:10:32.910Z,26.38
2023-03-18T02:13:19.544Z,24.92
2023-03-18T02:16:14.628Z,26.10
2023-03-18T02:19:07.544Z,26.42
2023-03-18T02:22:23.586Z,26.53
2023-03-18T02:25:48.651Z,25.98
2023-03-18T02:28:33.084Z,25.90
2023-03-18T02:31:27.643Z,26.65
2023-03-18T02:34:11.500Z,25.33
2023-03-18T02:37:01.567Z,24.77
2023-03-18T02:39:53.470Z,25.95
2023-03-18T02:42:46.580Z,24.73
2023-03-18T02:45:35.758Z,26.47
2023-03-18T02:48:31.558Z,25.15
2023-03-18T02:54:03.585Z,24.48
2023-03-18T02:56:46.211Z,25.38
2023-03-18T02:59:35.911Z,25.17
2023-03-18T03:02:24.843Z,25.27
2023-03-18T03:05:07.638Z,22.92
2023-03-18T03:07:57.205Z,24.17
2023-03-18T03:10:44.597Z,23.95
2023-03-18T03:13:28.807Z,23.08
2023-03-18T03:19:07.091Z,23.83
2023-03-18T03:21:49.586Z,26.13
2023-03-18T03:24:40.079Z,25.17
2023-03-18T03:27:22.555Z,24.52
2023-03-18T03:30:08.962Z,25.25
2023-03-18T03:32:57.628Z,25.13
2023-03-18T03:35:47.569Z,25.75
2023-03-18T03:38:30.482Z,24.77
2023-03-18T03:41:21.578Z,25.27
2023-03-18T03:44:03.829Z,24.38
2023-03-18T03:46:52.629Z,24.10
2023-03-18T03:49:40.774Z,22.15
2023-03-18T03:52:27.518Z,23.38
2023-03-18T03:55:18.556Z,23.73
2023-03-18T03:58:09.535Z,23.13
2023-03-18T04:01:00.570Z,20.73
2023-03-18T04:03:50.442Z,22.58
2023-03-18T04:06:39.642Z,20.27
2023-03-18T04:09:22.435Z,20.33
2023-03-18T04:12:11.592Z,19.27
2023-03-18T04:15:01.205Z,19.13
2023-03-18T04:17:54.390Z,16.58
2023-03-18T04:20:38.690Z,17.63
2023-03-18T04:23:40.553Z,15.45
2023-03-18T04:26:31.555Z,13.98
2023-03-18T04:29:20.796Z,13.73
2023-03-18T04:32:04.626Z,14.15
2023-03-18T04:34:47.762Z,15.30
2023-03-18T04:37:37.398Z,12.25
2023-03-18T04:40:22.311Z,11.82
2023-03-18T04:45:56.515Z,11.95
2023-03-18T04:48:46.548Z,11.40
2023-03-18T04:51:28.832Z,10.40
2023-03-18T04:54:20.554Z,9.38
2023-03-18T04:57:07.415Z,8.90
2023-03-18T05:00:04.598Z,9.65
2023-03-18T05:02:54.837Z,8.05
2023-03-18T05:05:38.650Z,7.90
2023-03-18T05:08:29.809Z,8.07
2023-03-18T05:11:11.916Z,7.93
2023-03-18T05:14:00.505Z,8.23
2023-03-18T05:16:56.498Z,9.55
2023-03-18T05:19:42.148Z,8.10
2023-03-18T05:22:36.503Z,7.72
2023-03-18T05:25:24.786Z,8.07
2023-03-18T05:28:13.550Z,8.50
2023-03-18T05:31:25.590Z,7.28
2023-03-18T05:34:16.495Z,7.55
2023-03-18T05:36:58.697Z,7.07
2023-03-18T05:39:48.562Z,8.10
2023-03-18T05:42:32.200Z,7.25
2023-03-18T05:45:23.550Z,7.18
2023-03-18T05:48:19.526Z,7.88
2023-03-18T05:51:06.960Z,8.00
2023-03-18T05:56:50.555Z,6.35
2023-03-18T05:59:32.855Z,6.35
2023-03-18T06:02:22.602Z,6.47
2023-03-18T06:05:04.846Z,6.95
2023-03-18T06:07:54.533Z,6.60
2023-03-18T06:10:37.035Z,6.22
2023-03-18T06:13:26.525Z,5.53
2023-03-18T06:16:09.786Z,5.18
2023-03-18T06:18:59.606Z,5.38
2023-03-18T06:21:43.098Z,4.97
2023-03-18T06:24:31.558Z,6.00
2023-03-18T06:27:15.082Z,5.75
2023-03-18T06:30:12.659Z,6.75
2023-03-18T06:32:56.069Z,6.22
2023-03-18T06:35:44.657Z,5.95
2023-03-18T06:38:30.180Z,5.63
2023-03-18T06:41:19.549Z,6.22
2023-03-18T06:44:31.924Z,7.30
2023-03-18T06:47:30.510Z,6.85
2023-03-18T06:50:14.657Z,7.50
2023-03-18T06:53:03.571Z,6.18
2023-03-18T06:55:46.901Z,7.70
2023-03-18T06:58:39.568Z,7.32
2023-03-18T07:01:28.614Z,7.97
2023-03-18T07:04:17.059Z,7.75
2023-03-18T07:07:00.597Z,8.90
2023-03-18T07:09:51.964Z,8.85
2023-03-18T07:12:36.587Z,9.63
2023-03-18T07:15:27.544Z,8.57
2023-03-18T07:18:12.548Z,9.23
2023-03-18T07:21:02.456Z,8.88
2023-03-18T07:23:46.531Z,10.93
2023-03-18T07:26:37.636Z,10.32
2023-03-18T07:29:20.536Z,11.43
2023-03-18T07:32:09.663Z,9.93
2023-03-18T07:34:51.841Z,11.10
2023-03-18T07:37:41.584Z,12.07
2023-03-18T07:40:23.975Z,10.00
2023-03-18T07:43:15.634Z,10.70
2023-03-18T07:45:58.011Z,9.65
2023-03-18T07:48:46.632Z,10.02
2023-03-18T07:51:35.613Z,9.60
2023-03-18T07:54:19.141Z,10.90
2023-03-18T07:57:07.515Z,9.60
2023-03-18T07:59:57.237Z,10.27
2023-03-18T08:02:48.805Z,10.63
2023-03-18T08:05:31.049Z,9.18
2023-03-18T08:08:21.561Z,8.85
2023-03-18T08:11:03.745Z,9.05
2023-03-18T08:13:53.578Z,9.02
2023-03-18T08:16:42.904Z,8.75
2023-03-18T08:19:25.553Z,9.02
2023-03-18T08:22:13.841Z,9.10
2023-03-18T08:24:56.922Z,9.40
2023-03-18T08:27:38.911Z,9.70
2023-03-18T08:30:28.670Z,10.20
2023-03-18T08:33:17.978Z,10.82
2023-03-18T08:35:59.639Z,9.68
2023-03-18T08:38:49.005Z,10.23
2023-03-18T08:41:33.562Z,10.95
2023-03-18T08:44:21.839Z,10.13
2023-03-18T08:47:03.601Z,10.20
2023-03-18T08:49:51.842Z,8.80
2023-03-18T08:52:34.556Z,9.98
2023-03-18T08:55:17.395Z,11.13
2023-03-18T08:58:06.549Z,10.65
2023-03-18T09:01:02.561Z,10.88
2023-03-18T09:03:52.602Z,11.20
2023-03-18T09:06:35.991Z,10.77
2023-03-18T09:09:40.759Z,10.27
2023-03-18T09:12:25.629Z,10.00
2023-03-18T09:15:17.659Z,9.95
2023-03-18T09:18:10.991Z,9.55
2023-03-18T09:21:01.545Z,10.50
2023-03-18T09:23:44.349Z,9.82
2023-03-18T09:26:33.550Z,10.00
2023-03-18T09:29:15.923Z,10.40
2023-03-18T09:32:04.612Z,9.90
2023-03-18T09:34:47.531Z,9.85
2023-03-18T09:37:36.554Z,10.57
2023-03-18T09:40:38.883Z,9.88
2023-03-18T09:44:05.545Z,10.10
2023-03-18T09:46:51.369Z,11.32
2023-03-18T09:50:04.564Z,9.20
2023-03-18T09:53:14.543Z,9.07
2023-03-18T09:56:08.885Z,9.68
2023-03-18T09:59:01.531Z,10.00
2023-03-18T10:01:52.995Z,9.40
2023-03-18T10:04:48.595Z,9.93
2023-03-18T10:07:44.496Z,9.73
2023-03-18T10:10:36.595Z,9.75
2023-03-18T10:13:38.286Z,9.70
2023-03-18T10:16:29.582Z,10.57
2023-03-18T10:19:18.556Z,11.10
2023-03-18T10:22:21.516Z,10.43
2023-03-18T10:25:15.885Z,11.13
2023-03-18T10:28:13.506Z,11.55
2023-03-18T10:31:24.659Z,12.25
2023-03-18T10:34:14.492Z,13.40
2023-03-18T10:37:12.498Z,13.23
2023-03-18T10:39:55.840Z,13.40
2023-03-18T10:42:47.004Z,13.05
2023-03-18T10:45:43.194Z,13.38
2023-03-18T10:48:47.508Z,14.00
2023-03-18T10:51:35.972Z,13.45
2023-03-18T10:54:44.615Z,13.98
2023-03-18T10:57:28.899Z,13.80
2023-03-18T11:00:34.876Z,14.00
2023-03-18T11:03:28.936Z,14.23
2023-03-18T11:06:26.891Z,13.82
2023-03-18T11:09:25.927Z,13.88
2023-03-18T11:12:24.549Z,12.50
2023-03-18T11:15:06.822Z,12.68
2023-03-18T11:17:59.485Z,12.90
2023-03-18T11:20:50.778Z,12.80
2023-03-18T11:23:56.587Z,12.60
2023-03-18T11:26:39.017Z,12.35
2023-03-18T11:29:32.584Z,12.27
2023-03-18T11:32:36.157Z,12.40
2023-03-18T11:35:33.668Z,10.82
2023-03-18T11:38:23.892Z,9.85
2023-03-18T11:41:30.482Z,10.98
2023-03-18T11:44:27.124Z,10.38
2023-03-18T11:47:30.549Z,10.38
2023-03-18T11:50:35.567Z,10.63
2023-03-18T11:54:01.792Z,10.65
2023-03-18T11:57:02.575Z,11.32
2023-03-18T11:59:57.510Z,10.77
2023-03-18T12:02:52.526Z,10.30
2023-03-18T12:06:15.658Z,12.15
2023-03-18T12:09:10.564Z,12.95
2023-03-18T12:12:08.022Z,12.02
2023-03-18T12:15:13.529Z,13.93
2023-03-18T12:18:24.790Z,9.50
2023-03-18T12:21:18.835Z,9.85
2023-03-18T12:24:27.029Z,10.30
2023-03-18T12:27:35.582Z,9.73
2023-03-18T12:30:47.990Z,11.60
2023-03-18T12:34:15.575Z,10.20
2023-03-18T12:37:43.520Z,9.90
2023-03-18T12:40:52.432Z,9.70
2023-03-18T12:43:56.511Z,10.32
2023-03-18T12:47:22.575Z,9.93
2023-03-18T12:50:33.569Z,10.02
2023-03-18T12:53:31.229Z,11.15
2023-03-18T12:56:31.573Z,10.40
2023-03-18T12:59:34.830Z,10.20
2023-03-18T13:02:44.566Z,10.38
2023-03-18T13:05:54.707Z,10.10
2023-03-18T13:09:01.522Z,10.18
2023-03-18T13:12:08.794Z,10.43
2023-03-18T13:15:11.518Z,10.02
2023-03-18T13:18:06.367Z,10.93
2023-03-18T13:20:51.510Z,10.10
2023-03-18T13:23:42.508Z,9.85
2023-03-18T13:27:07.507Z,11.23
2023-03-18T13:30:05.449Z,10.02
2023-03-18T13:33:05.878Z,10.35
2023-03-18T13:36:31.543Z,11.45
2023-03-18T13:39:41.744Z,11.93
2023-03-18T13:42:44.525Z,10.45
2023-03-18T13:45:36.592Z,11.68
2023-03-18T13:48:44.308Z,11.45
2023-03-18T13:51:33.524Z,11.02
2023-03-18T13:54:30.583Z,11.52
2023-03-18T13:57:33.979Z,11.55
2023-03-18T14:00:40.513Z,11.70
2023-03-18T14:03:37.512Z,10.57
2023-03-18T14:06:39.793Z,11.50
2023-03-18T14:09:43.549Z,11.05
2023-03-18T14:12:53.241Z,11.57
2023-03-18T14:15:54.508Z,11.15
2023-03-18T14:18:49.524Z,11.90
2023-03-18T14:21:34.285Z,11.77
2023-03-18T14:24:36.504Z,12.35
2023-03-18T14:27:28.004Z,11.43
2023-03-18T14:30:42.866Z,12.80
2023-03-18T14:33:31.240Z,12.32
2023-03-18T14:36:17.583Z,11.77
2023-03-18T14:39:11.899Z,12.40
2023-03-18T14:42:00.690Z,13.25
2023-03-18T14:44:56.766Z,11.60
2023-03-18T14:48:00.526Z,11.82
2023-03-18T14:50:54.202Z,11.18
2023-03-18T14:53:48.150Z,10.65
2023-03-18T14:56:32.797Z,10.52
2023-03-18T14:59:22.467Z,10.55
2023-03-18T15:02:20.312Z,11.13
2023-03-18T15:05:06.559Z,11.30
2023-03-18T15:07:59.766Z,11.50
2023-03-18T15:10:42.477Z,11.15
2023-03-18T15:13:32.851Z,12.10
2023-03-18T15:16:19.601Z,11.07
2023-03-18T15:19:09.098Z,11.95
2023-03-18T15:21:51.484Z,12.60
2023-03-18T15:24:41.905Z,15.63
2023-03-18T15:27:28.549Z,12.98
2023-03-18T15:30:39.275Z,13.93
2023-03-18T15:33:36.813Z,14.77
2023-03-18T15:36:25.922Z,17.58
2023-03-18T15:39:10.075Z,20.42
2023-03-18T15:42:00.804Z,21.48
2023-03-18T15:44:50.324Z,20.02
2023-03-18T15:47:40.744Z,17.58
2023-03-18T15:50:34.512Z,17.55
2023-03-18T15:54:02.765Z,18.70
2023-03-18T15:56:56.529Z,18.02
2023-03-18T15:59:41.016Z,19.98
2023-03-18T16:02:30.529Z,19.50
2023-03-18T16:05:30.148Z,20.35
2023-03-18T16:08:21.592Z,18.45
2023-03-18T16:11:06.867Z,20.92
2023-03-18T16:13:55.501Z,21.70
2023-03-18T16:16:44.526Z,18.85
2023-03-18T16:19:35.815Z,17.65
2023-03-18T16:22:18.550Z,16.38
2023-03-18T16:25:07.031Z,18.57
2023-03-18T16:27:52.576Z,16.77
2023-03-18T16:30:41.904Z,16.60
2023-03-18T16:33:25.496Z,16.63
2023-03-18T16:36:15.101Z,17.60
2023-03-18T16:38:58.436Z,18.67
2023-03-18T16:41:46.857Z,17.15
2023-03-18T16:44:31.540Z,17.40
2023-03-18T16:47:37.912Z,17.27
2023-03-18T16:50:38.573Z,16.45
2023-03-18T16:53:36.920Z,16.65
2023-03-18T16:56:25.473Z,16.52
2023-03-18T16:59:20.766Z,15.93
2023-03-18T17:02:02.512Z,17.70
2023-03-18T17:04:51.459Z,16.38
2023-03-18T17:07:37.963Z,16.77
2023-03-18T17:10:32.526Z,16.95
2023-03-18T17:13:19.780Z,16.67
2023-03-18T17:16:09.447Z,17.75
2023-03-18T17:18:51.845Z,17.02
2023-03-18T17:21:41.537Z,18.10
2023-03-18T17:24:29.412Z,18.33
2023-03-18T17:27:38.562Z,16.35
2023-03-18T17:30:31.931Z,17.13
2023-03-18T17:33:43.540Z,17.58
2023-03-18T17:36:25.746Z,16.95
2023-03-18T17:39:14.561Z,17.60
2023-03-18T17:41:57.304Z,17.33
2023-03-18T17:44:46.722Z,16.60
2023-03-18T17:47:29.035Z,17.15
2023-03-18T17:50:27.452Z,17.50
2023-03-18T17:53:10.802Z,16.55
2023-03-18T17:56:01.458Z,17.07
2023-03-18T17:58:44.027Z,16.88
2023-03-18T18:01:37.518Z,16.92
2023-03-18T18:04:29.461Z,17.02
2023-03-18T18:07:27.619Z,17.48
2023-03-18T18:10:10.144Z,16.02
2023-03-18T18:12:59.612Z,16.90
2023-03-18T18:15:42.111Z,16.83
2023-03-18T18:18:35.581Z,18.25
2023-03-18T18:21:28.775Z,16.60
2023-03-18T18:24:29.440Z,16.42
2023-03-18T18:27:11.802Z,16.63
2023-03-18T18:30:01.427Z,16.60
2023-03-18T18:32:51.541Z,17.27
2023-03-18T18:35:34.130Z,17.65
2023-03-18T18:38:23.528Z,19.38
2023-03-18T18:41:13.846Z,17.92
2023-03-18T18:43:55.555Z,17.45
2023-03-18T18:46:38.049Z,18.67
2023-03-18T18:49:36.689Z,17.25
2023-03-18T18:52:26.858Z,17.55
2023-03-18T18:55:09.619Z,18.17
2023-03-18T18:57:53.020Z,19.02
2023-03-18T19:00:41.782Z,19.38
2023-03-18T19:03:35.148Z,17.85
2023-03-18T19:06:44.673Z,18.58
2023-03-18T19:09:33.970Z,19.00
2023-03-18T19:12:26.701Z,18.17
2023-03-18T19:15:09.632Z,18.80
2023-03-18T19:18:01.954Z,19.38
2023-03-18T19:20:45.170Z,19.88
2023-03-18T19:23:43.285Z,19.05
2023-03-18T19:26:34.371Z,19.10
2023-03-18T19:29:21.142Z,19.63
2023-03-18T19:32:11.440Z,20.58
2023-03-18T19:34:57.249Z,21.67
2023-03-18T19:37:50.757Z,23.10
2023-03-18T19:40:43.021Z,26.43
2023-03-18T19:43:32.616Z,23.95
2023-03-18T19:46:25.097Z,31.85
2023-03-18T19:49:33.801Z,31.40
2023-03-18T19:52:35.913Z,29.60
2023-03-18T19:55:26.664Z,26.73
2023-03-18T19:58:40.019Z,27.58
2023-03-18T20:01:22.695Z,25.70
2023-03-18T20:04:15.534Z,25.43
2023-03-18T20:06:59.025Z,25.80
2023-03-18T20:09:48.126Z,27.98
2023-03-18T20:12:42.815Z,27.88
2023-03-18T20:15:34.951Z,29.45
2023-03-18T20:18:25.656Z,29.42
2023-03-18T20:21:14.930Z,31.30
2023-03-18T20:24:00.264Z,32.47
2023-03-18T20:26:43.426Z,36.40
2023-03-18T20:29:34.754Z,42.35
2023-03-18T20:32:23.984Z,44.15
2023-03-18T20:35:06.641Z,48.75
2023-03-18T20:37:49.548Z,51.42
2023-03-18T20:40:41.573Z,51.72
2023-03-18T20:43:32.604Z,52.70
2023-03-18T20:46:25.217Z,52.00
2023-03-18T20:49:21.509Z,52.50
2023-03-18T20:52:12.758Z,50.95
2023-03-18T20:54:54.989Z,52.22
2023-03-18T20:57:43.726Z,52.20
2023-03-18T21:00:28.213Z,52.08
2023-03-18T21:03:33.622Z,52.53
2023-03-18T21:06:23.230Z,51.58
2023-03-18T21:09:12.618Z,53.60
2023-03-18T21:11:54.978Z,51.83
2023-03-18T21:14:43.576Z,52.33
2023-03-18T21:17:36.102Z,53.55
2023-03-18T21:20:28.257Z,56.75
2023-03-18T21:23:11.606Z,54.85
2023-03-18T21:26:01.548Z,55.30
2023-03-18T21:28:43.965Z,55.78
2023-03-18T21:31:37.643Z,55.22
2023-03-18T21:34:20.292Z,55.42
2023-03-18T21:37:09.652Z,55.47
2023-03-18T21:39:58.631Z,52.70
2023-03-18T21:42:47.676Z,53.38
2023-03-18T21:45:31.954Z,53.88
2023-03-18T21:48:16.833Z,49.85
2023-03-18T21:51:05.639Z,50.22
2023-03-18T21:53:54.968Z,49.60
2023-03-18T21:56:37.517Z,46.83
2023-03-18T21:59:19.852Z,46.88
2023-03-18T22:02:08.761Z,43.40
2023-03-18T22:04:59.113Z,43.30
2023-03-18T22:07:42.501Z,41.08
2023-03-18T22:10:25.208Z,41.65
2023-03-18T22:13:14.517Z,39.35
2023-03-18T22:16:05.520Z,39.22
2023-03-18T22:18:55.495Z,39.83
2023-03-18T22:21:37.986Z,37.83
2023-03-18T22:24:29.891Z,37.72
2023-03-18T22:27:33.598Z,38.78
2023-03-18T22:30:17.573Z,38.15
2023-03-18T22:33:08.002Z,38.33
2023-03-18T22:35:50.621Z,36.47
2023-03-18T22:38:35.146Z,37.22
2023-03-18T22:41:44.514Z,34.95
2023-03-18T22:44:27.112Z,38.85
2023-03-18T22:47:16.528Z,43.58
2023-03-18T22:50:11.442Z,44.15
2023-03-18T22:53:07.638Z,48.05
2023-03-18T22:55:49.854Z,50.03
2023-03-18T22:58:38.534Z,51.63
2023-03-18T23:01:48.427Z,52.10
2023-03-18T23:04:31.555Z,52.20
2023-03-18T23:07:20.724Z,53.63
2023-03-18T23:10:05.826Z,52.55
2023-03-18T23:12:54.514Z,52.40
2023-03-18T23:15:37.026Z,53.10
2023-03-18T23:18:31.548Z,55.00
2023-03-18T23:21:23.105Z,56.53
2023-03-18T23:24:15.089Z,56.25
2023-03-18T23:27:06.591Z,57.20
2023-03-18T23:29:56.275Z,57.75
2023-03-18T23:32:45.420Z,57.47
2023-03-18T23:35:34.648Z,60.92
2023-03-18T23:38:17.288Z,63.75
2023-03-18T23:41:06.436Z,69.47
2023-03-18T23:43:55.496Z,70.55
2023-03-18T23:46:38.835Z,70.70
2023-03-18T23:49:39.485Z,70.57
2023-03-18T23:52:22.174Z,68.97
2023-03-18T23:55:32.693Z,68.07
2023-03-18T23:58:14.784Z,67.13
